sensor_id;sensor_type;location;lat;lon;timestamp;temperature;humidity
61016;DHT22;46902;52.920;6.536;2023-07-16T00:00:46;17.70;90.20
61016;DHT22;46902;52.920;6.536;2023-07-16T00:03:12;17.70;90.30
61016;DHT22;46902;52.920;6.536;2023-07-16T00:05:39;17.60;90.50
61016;DHT22;46902;52.920;6.536;2023-07-16T00:08:05;17.60;90.70
61016;DHT22;46902;52.920;6.536;2023-07-16T00:10:36;17.50;90.80
61016;DHT22;46902;52.920;6.536;2023-07-16T00:13:03;17.50;90.90
61016;DHT22;46902;52.920;6.536;2023-07-16T00:15:29;17.50;91.10
61016;DHT22;46902;52.920;6.536;2023-07-16T00:17:54;17.50;91.30
61016;DHT22;46902;52.920;6.536;2023-07-16T00:20:21;17.50;91.60
61016;DHT22;46902;52.920;6.536;2023-07-16T00:22:46;17.60;92.10
61016;DHT22;46902;52.920;6.536;2023-07-16T00:25:12;17.60;92.80
61016;DHT22;46902;52.920;6.536;2023-07-16T00:27:37;17.70;93.50
61016;DHT22;46902;52.920;6.536;2023-07-16T00:30:03;17.60;93.80
61016;DHT22;46902;52.920;6.536;2023-07-16T00:32:29;17.60;94.10
61016;DHT22;46902;52.920;6.536;2023-07-16T00:34:55;17.50;94.10
61016;DHT22;46902;52.920;6.536;2023-07-16T00:37:20;17.50;94.00
61016;DHT22;46902;52.920;6.536;2023-07-16T00:39:46;17.50;94.00
61016;DHT22;46902;52.920;6.536;2023-07-16T00:42:12;17.50;93.90
61016;DHT22;46902;52.920;6.536;2023-07-16T00:44:37;17.50;93.80
61016;DHT22;46902;52.920;6.536;2023-07-16T00:47:03;17.40;93.90
61016;DHT22;46902;52.920;6.536;2023-07-16T00:49:29;17.40;93.90
61016;DHT22;46902;52.920;6.536;2023-07-16T00:51:55;17.30;94.00
61016;DHT22;46902;52.920;6.536;2023-07-16T00:54:21;17.30;93.90
61016;DHT22;46902;52.920;6.536;2023-07-16T00:56:48;17.30;94.10
61016;DHT22;46902;52.920;6.536;2023-07-16T00:59:13;17.20;94.20
61016;DHT22;46902;52.920;6.536;2023-07-16T01:01:39;17.20;94.30
61016;DHT22;46902;52.920;6.536;2023-07-16T01:04:05;17.20;94.50
61016;DHT22;46902;52.920;6.536;2023-07-16T01:06:37;17.20;94.60
61016;DHT22;46902;52.920;6.536;2023-07-16T01:09:14;17.20;94.70
61016;DHT22;46902;52.920;6.536;2023-07-16T01:11:41;17.20;94.70
61016;DHT22;46902;52.920;6.536;2023-07-16T01:14:08;17.20;94.80
61016;DHT22;46902;52.920;6.536;2023-07-16T01:16:34;17.20;94.80
61016;DHT22;46902;52.920;6.536;2023-07-16T01:18:59;17.20;95.00
61016;DHT22;46902;52.920;6.536;2023-07-16T01:21:29;17.20;95.20
61016;DHT22;46902;52.920;6.536;2023-07-16T01:29:51;17.20;96.00
61016;DHT22;46902;52.920;6.536;2023-07-16T01:32:17;17.10;96.40
61016;DHT22;46902;52.920;6.536;2023-07-16T01:34:43;17.10;96.80
61016;DHT22;46902;52.920;6.536;2023-07-16T01:37:09;17.10;97.20
61016;DHT22;46902;52.920;6.536;2023-07-16T01:39:35;17.10;97.50
61016;DHT22;46902;52.920;6.536;2023-07-16T01:42:02;17.10;97.70
61016;DHT22;46902;52.920;6.536;2023-07-16T01:44:28;17.10;97.80
61016;DHT22;46902;52.920;6.536;2023-07-16T01:47:11;17.10;97.90
61016;DHT22;46902;52.920;6.536;2023-07-16T01:49:38;17.10;97.90
61016;DHT22;46902;52.920;6.536;2023-07-16T01:52:06;17.10;97.70
61016;DHT22;46902;52.920;6.536;2023-07-16T01:54:32;17.10;97.70
61016;DHT22;46902;52.920;6.536;2023-07-16T01:56:58;17.10;97.60
61016;DHT22;46902;52.920;6.536;2023-07-16T01:59:23;17.10;97.50
61016;DHT22;46902;52.920;6.536;2023-07-16T02:01:49;17.10;97.20
61016;DHT22;46902;52.920;6.536;2023-07-16T02:04:15;17.10;97.00
61016;DHT22;46902;52.920;6.536;2023-07-16T02:06:40;17.10;96.90
61016;DHT22;46902;52.920;6.536;2023-07-16T02:09:06;17.10;96.70
61016;DHT22;46902;52.920;6.536;2023-07-16T02:11:31;17.10;96.50
61016;DHT22;46902;52.920;6.536;2023-07-16T02:13:57;17.10;96.30
61016;DHT22;46902;52.920;6.536;2023-07-16T02:16:22;17.10;96.10
61016;DHT22;46902;52.920;6.536;2023-07-16T02:18:48;17.10;95.80
61016;DHT22;46902;52.920;6.536;2023-07-16T02:21:14;17.10;95.50
61016;DHT22;46902;52.920;6.536;2023-07-16T02:23:39;17.10;95.30
61016;DHT22;46902;52.920;6.536;2023-07-16T02:26:05;17.10;95.00
61016;DHT22;46902;52.920;6.536;2023-07-16T02:28:31;17.10;95.10
61016;DHT22;46902;52.920;6.536;2023-07-16T02:30:56;17.10;94.50
61016;DHT22;46902;52.920;6.536;2023-07-16T02:33:22;17.10;94.40
61016;DHT22;46902;52.920;6.536;2023-07-16T02:35:49;17.10;94.30
61016;DHT22;46902;52.920;6.536;2023-07-16T02:38:15;17.10;94.20
61016;DHT22;46902;52.920;6.536;2023-07-16T02:40:48;17.10;94.10
61016;DHT22;46902;52.920;6.536;2023-07-16T02:43:14;17.10;93.90
61016;DHT22;46902;52.920;6.536;2023-07-16T02:45:40;17.10;93.90
61016;DHT22;46902;52.920;6.536;2023-07-16T02:48:06;17.10;93.90
61016;DHT22;46902;52.920;6.536;2023-07-16T02:50:36;17.10;93.80
61016;DHT22;46902;52.920;6.536;2023-07-16T02:53:04;17.10;93.70
61016;DHT22;46902;52.920;6.536;2023-07-16T02:55:29;17.10;93.80
61016;DHT22;46902;52.920;6.536;2023-07-16T02:57:55;17.00;93.80
61016;DHT22;46902;52.920;6.536;2023-07-16T03:00:21;17.00;93.80
61016;DHT22;46902;52.920;6.536;2023-07-16T03:02:46;17.00;93.90
61016;DHT22;46902;52.920;6.536;2023-07-16T03:05:12;17.00;93.90
61016;DHT22;46902;52.920;6.536;2023-07-16T03:07:38;17.00;93.90
61016;DHT22;46902;52.920;6.536;2023-07-16T03:10:03;17.00;93.90
61016;DHT22;46902;52.920;6.536;2023-07-16T03:12:29;17.00;93.90
61016;DHT22;46902;52.920;6.536;2023-07-16T03:14:55;17.00;94.00
61016;DHT22;46902;52.920;6.536;2023-07-16T03:17:21;17.00;94.10
61016;DHT22;46902;52.920;6.536;2023-07-16T03:19:49;16.90;94.20
61016;DHT22;46902;52.920;6.536;2023-07-16T03:22:15;16.90;94.20
61016;DHT22;46902;52.920;6.536;2023-07-16T03:24:40;16.90;94.30
61016;DHT22;46902;52.920;6.536;2023-07-16T03:27:06;16.90;94.30
61016;DHT22;46902;52.920;6.536;2023-07-16T03:29:35;16.90;94.40
61016;DHT22;46902;52.920;6.536;2023-07-16T03:32:02;16.90;94.40
61016;DHT22;46902;52.920;6.536;2023-07-16T03:34:28;16.90;94.50
61016;DHT22;46902;52.920;6.536;2023-07-16T03:36:53;16.90;94.50
61016;DHT22;46902;52.920;6.536;2023-07-16T03:39:19;16.80;94.50
61016;DHT22;46902;52.920;6.536;2023-07-16T03:41:44;16.80;94.60
61016;DHT22;46902;52.920;6.536;2023-07-16T03:44:10;16.80;94.70
61016;DHT22;46902;52.920;6.536;2023-07-16T03:46:36;16.80;94.60
61016;DHT22;46902;52.920;6.536;2023-07-16T03:49:01;16.70;94.70
61016;DHT22;46902;52.920;6.536;2023-07-16T03:51:27;16.70;94.80
61016;DHT22;46902;52.920;6.536;2023-07-16T03:53:53;16.80;94.90
61016;DHT22;46902;52.920;6.536;2023-07-16T03:56:18;16.70;95.00
61016;DHT22;46902;52.920;6.536;2023-07-16T03:58:44;16.70;95.00
61016;DHT22;46902;52.920;6.536;2023-07-16T04:01:10;16.70;95.10
61016;DHT22;46902;52.920;6.536;2023-07-16T04:03:36;16.70;95.20
61016;DHT22;46902;52.920;6.536;2023-07-16T04:06:05;16.70;95.20
61016;DHT22;46902;52.920;6.536;2023-07-16T04:08:31;16.70;95.30
61016;DHT22;46902;52.920;6.536;2023-07-16T04:10:57;16.70;95.50
61016;DHT22;46902;52.920;6.536;2023-07-16T04:13:23;16.70;95.40
61016;DHT22;46902;52.920;6.536;2023-07-16T04:15:49;16.70;95.50
61016;DHT22;46902;52.920;6.536;2023-07-16T04:18:14;16.70;95.60
61016;DHT22;46902;52.920;6.536;2023-07-16T04:20:40;16.70;95.70
61016;DHT22;46902;52.920;6.536;2023-07-16T04:23:05;16.70;95.70
61016;DHT22;46902;52.920;6.536;2023-07-16T04:25:31;16.70;95.80
61016;DHT22;46902;52.920;6.536;2023-07-16T04:27:57;16.70;95.80
61016;DHT22;46902;52.920;6.536;2023-07-16T04:30:22;16.70;96.00
61016;DHT22;46902;52.920;6.536;2023-07-16T04:32:48;16.70;96.10
61016;DHT22;46902;52.920;6.536;2023-07-16T04:35:14;16.70;96.20
61016;DHT22;46902;52.920;6.536;2023-07-16T04:37:39;16.80;96.30
61016;DHT22;46902;52.920;6.536;2023-07-16T04:40:06;16.80;96.40
61016;DHT22;46902;52.920;6.536;2023-07-16T04:42:31;16.80;96.40
61016;DHT22;46902;52.920;6.536;2023-07-16T04:44:57;16.80;96.50
61016;DHT22;46902;52.920;6.536;2023-07-16T04:47:23;16.80;96.50
61016;DHT22;46902;52.920;6.536;2023-07-16T04:49:48;16.80;96.60
61016;DHT22;46902;52.920;6.536;2023-07-16T04:52:14;16.90;96.70
61016;DHT22;46902;52.920;6.536;2023-07-16T04:54:39;16.90;96.70
61016;DHT22;46902;52.920;6.536;2023-07-16T04:57:06;16.90;96.80
61016;DHT22;46902;52.920;6.536;2023-07-16T04:59:32;16.90;96.90
61016;DHT22;46902;52.920;6.536;2023-07-16T05:01:57;17.00;97.00
61016;DHT22;46902;52.920;6.536;2023-07-16T05:04:23;17.00;96.90
61016;DHT22;46902;52.920;6.536;2023-07-16T05:06:49;17.10;97.00
61016;DHT22;46902;52.920;6.536;2023-07-16T05:09:14;17.10;97.00
61016;DHT22;46902;52.920;6.536;2023-07-16T05:11:40;17.00;96.90
61016;DHT22;46902;52.920;6.536;2023-07-16T05:14:05;17.10;97.00
61016;DHT22;46902;52.920;6.536;2023-07-16T05:16:31;17.10;97.00
61016;DHT22;46902;52.920;6.536;2023-07-16T05:18:56;17.10;96.90
61016;DHT22;46902;52.920;6.536;2023-07-16T05:21:22;17.20;97.00
61016;DHT22;46902;52.920;6.536;2023-07-16T05:23:48;17.20;96.90
61016;DHT22;46902;52.920;6.536;2023-07-16T05:26:13;17.20;96.90
61016;DHT22;46902;52.920;6.536;2023-07-16T05:28:39;17.20;97.00
61016;DHT22;46902;52.920;6.536;2023-07-16T05:31:04;17.30;97.00
61016;DHT22;46902;52.920;6.536;2023-07-16T05:33:30;17.30;96.90
61016;DHT22;46902;52.920;6.536;2023-07-16T05:35:56;17.30;96.90
61016;DHT22;46902;52.920;6.536;2023-07-16T05:38:21;17.30;96.70
61016;DHT22;46902;52.920;6.536;2023-07-16T05:40:47;17.40;96.70
61016;DHT22;46902;52.920;6.536;2023-07-16T05:43:13;17.40;96.70
61016;DHT22;46902;52.920;6.536;2023-07-16T05:45:40;17.40;96.70
61016;DHT22;46902;52.920;6.536;2023-07-16T05:48:05;17.50;96.60
61016;DHT22;46902;52.920;6.536;2023-07-16T05:50:31;17.50;96.30
61016;DHT22;46902;52.920;6.536;2023-07-16T05:52:57;17.50;96.40
61016;DHT22;46902;52.920;6.536;2023-07-16T05:55:22;17.50;96.30
61016;DHT22;46902;52.920;6.536;2023-07-16T05:57:48;17.60;96.50
61016;DHT22;46902;52.920;6.536;2023-07-16T06:00:13;17.60;96.50
61016;DHT22;46902;52.920;6.536;2023-07-16T06:02:39;17.70;96.30
61016;DHT22;46902;52.920;6.536;2023-07-16T06:05:06;17.70;96.20
61016;DHT22;46902;52.920;6.536;2023-07-16T06:07:31;17.80;96.10
61016;DHT22;46902;52.920;6.536;2023-07-16T06:09:58;17.80;96.10
61016;DHT22;46902;52.920;6.536;2023-07-16T06:12:23;17.90;96.10
61016;DHT22;46902;52.920;6.536;2023-07-16T06:14:49;17.90;95.90
61016;DHT22;46902;52.920;6.536;2023-07-16T06:17:15;17.90;95.70
61016;DHT22;46902;52.920;6.536;2023-07-16T06:19:40;18.10;95.70
61016;DHT22;46902;52.920;6.536;2023-07-16T06:22:06;18.10;95.40
61016;DHT22;46902;52.920;6.536;2023-07-16T06:24:34;18.10;95.30
61016;DHT22;46902;52.920;6.536;2023-07-16T06:27:00;18.10;95.10
61016;DHT22;46902;52.920;6.536;2023-07-16T06:29:25;18.20;95.10
61016;DHT22;46902;52.920;6.536;2023-07-16T06:31:58;18.30;95.10
61016;DHT22;46902;52.920;6.536;2023-07-16T06:34:26;18.40;94.90
61016;DHT22;46902;52.920;6.536;2023-07-16T06:36:52;18.50;94.80
61016;DHT22;46902;52.920;6.536;2023-07-16T06:39:18;18.50;94.60
61016;DHT22;46902;52.920;6.536;2023-07-16T06:41:43;18.60;94.30
61016;DHT22;46902;52.920;6.536;2023-07-16T06:44:09;18.70;94.60
61016;DHT22;46902;52.920;6.536;2023-07-16T06:46:35;18.70;94.00
61016;DHT22;46902;52.920;6.536;2023-07-16T06:49:00;18.70;93.90
61016;DHT22;46902;52.920;6.536;2023-07-16T06:51:26;18.80;93.90
61016;DHT22;46902;52.920;6.536;2023-07-16T06:53:53;18.80;93.60
61016;DHT22;46902;52.920;6.536;2023-07-16T06:56:19;18.90;93.40
61016;DHT22;46902;52.920;6.536;2023-07-16T06:58:45;18.90;93.50
61016;DHT22;46902;52.920;6.536;2023-07-16T07:01:10;18.90;93.10
61016;DHT22;46902;52.920;6.536;2023-07-16T07:03:36;18.90;92.80
61016;DHT22;46902;52.920;6.536;2023-07-16T07:06:02;18.90;92.80
61016;DHT22;46902;52.920;6.536;2023-07-16T07:08:29;18.80;92.50
61016;DHT22;46902;52.920;6.536;2023-07-16T07:10:54;18.80;92.70
61016;DHT22;46902;52.920;6.536;2023-07-16T07:13:20;18.90;93.00
61016;DHT22;46902;52.920;6.536;2023-07-16T07:15:45;19.00;92.90
61016;DHT22;46902;52.920;6.536;2023-07-16T07:18:11;19.10;92.50
61016;DHT22;46902;52.920;6.536;2023-07-16T07:20:37;19.10;92.10
61016;DHT22;46902;52.920;6.536;2023-07-16T07:23:03;19.10;91.90
61016;DHT22;46902;52.920;6.536;2023-07-16T07:25:30;19.20;91.50
61016;DHT22;46902;52.920;6.536;2023-07-16T07:27:56;19.30;91.30
61016;DHT22;46902;52.920;6.536;2023-07-16T07:30:21;19.30;91.00
61016;DHT22;46902;52.920;6.536;2023-07-16T07:32:47;19.40;90.90
61016;DHT22;46902;52.920;6.536;2023-07-16T07:35:13;19.40;90.60
61016;DHT22;46902;52.920;6.536;2023-07-16T07:37:38;19.30;90.40
61016;DHT22;46902;52.920;6.536;2023-07-16T07:40:04;19.40;90.40
61016;DHT22;46902;52.920;6.536;2023-07-16T07:42:30;19.50;90.80
61016;DHT22;46902;52.920;6.536;2023-07-16T07:44:56;19.70;90.80
61016;DHT22;46902;52.920;6.536;2023-07-16T07:47:21;19.70;90.50
61016;DHT22;46902;52.920;6.536;2023-07-16T07:49:47;19.70;90.30
61016;DHT22;46902;52.920;6.536;2023-07-16T07:52:13;19.80;89.70
61016;DHT22;46902;52.920;6.536;2023-07-16T07:54:38;19.90;89.30
61016;DHT22;46902;52.920;6.536;2023-07-16T07:57:04;19.90;90.00
61016;DHT22;46902;52.920;6.536;2023-07-16T07:59:31;20.10;89.20
61016;DHT22;46902;52.920;6.536;2023-07-16T08:01:57;20.10;89.10
61016;DHT22;46902;52.920;6.536;2023-07-16T08:04:23;20.10;88.60
61016;DHT22;46902;52.920;6.536;2023-07-16T08:06:50;20.10;88.00
61016;DHT22;46902;52.920;6.536;2023-07-16T08:09:16;20.10;88.80
61016;DHT22;46902;52.920;6.536;2023-07-16T08:11:41;20.10;88.80
61016;DHT22;46902;52.920;6.536;2023-07-16T08:14:07;20.10;88.50
61016;DHT22;46902;52.920;6.536;2023-07-16T08:16:33;20.00;87.90
61016;DHT22;46902;52.920;6.536;2023-07-16T08:18:58;20.00;87.70
61016;DHT22;46902;52.920;6.536;2023-07-16T08:21:24;20.00;87.80
61016;DHT22;46902;52.920;6.536;2023-07-16T08:23:50;19.90;88.10
61016;DHT22;46902;52.920;6.536;2023-07-16T08:26:16;20.00;88.30
61016;DHT22;46902;52.920;6.536;2023-07-16T08:28:42;20.30;88.30
61016;DHT22;46902;52.920;6.536;2023-07-16T08:31:07;20.50;87.70
61016;DHT22;46902;52.920;6.536;2023-07-16T08:33:33;20.60;88.10
61016;DHT22;46902;52.920;6.536;2023-07-16T08:35:58;20.60;88.00
61016;DHT22;46902;52.920;6.536;2023-07-16T08:38:24;20.70;87.30
61016;DHT22;46902;52.920;6.536;2023-07-16T08:40:50;20.60;87.10
61016;DHT22;46902;52.920;6.536;2023-07-16T08:43:16;20.50;86.80
61016;DHT22;46902;52.920;6.536;2023-07-16T08:45:43;20.50;86.80
61016;DHT22;46902;52.920;6.536;2023-07-16T08:48:10;20.60;86.50
61016;DHT22;46902;52.920;6.536;2023-07-16T08:50:37;20.60;86.40
61016;DHT22;46902;52.920;6.536;2023-07-16T08:53:04;20.60;86.60
61016;DHT22;46902;52.920;6.536;2023-07-16T08:55:30;20.60;86.40
61016;DHT22;46902;52.920;6.536;2023-07-16T08:57:57;20.70;86.70
61016;DHT22;46902;52.920;6.536;2023-07-16T09:00:27;20.80;85.20
61016;DHT22;46902;52.920;6.536;2023-07-16T09:02:53;20.80;84.90
61016;DHT22;46902;52.920;6.536;2023-07-16T09:05:20;20.80;84.40
61016;DHT22;46902;52.920;6.536;2023-07-16T09:07:46;20.90;84.50
61016;DHT22;46902;52.920;6.536;2023-07-16T09:10:12;21.20;85.10
61016;DHT22;46902;52.920;6.536;2023-07-16T09:12:47;21.40;83.90
61016;DHT22;46902;52.920;6.536;2023-07-16T09:15:17;21.40;83.20
61016;DHT22;46902;52.920;6.536;2023-07-16T09:17:47;21.30;82.90
61016;DHT22;46902;52.920;6.536;2023-07-16T09:20:15;21.30;83.40
61016;DHT22;46902;52.920;6.536;2023-07-16T09:22:41;21.40;83.00
61016;DHT22;46902;52.920;6.536;2023-07-16T09:25:07;21.40;82.80
61016;DHT22;46902;52.920;6.536;2023-07-16T09:27:32;21.30;82.70
61016;DHT22;46902;52.920;6.536;2023-07-16T09:29:58;21.20;82.50
61016;DHT22;46902;52.920;6.536;2023-07-16T09:32:37;21.00;82.70
61016;DHT22;46902;52.920;6.536;2023-07-16T09:35:14;20.90;82.60
61016;DHT22;46902;52.920;6.536;2023-07-16T09:37:41;21.00;83.10
61016;DHT22;46902;52.920;6.536;2023-07-16T09:40:08;20.90;82.30
61016;DHT22;46902;52.920;6.536;2023-07-16T09:42:39;21.00;81.80
61016;DHT22;46902;52.920;6.536;2023-07-16T09:45:13;21.20;81.50
61016;DHT22;46902;52.920;6.536;2023-07-16T09:47:39;21.40;81.60
61016;DHT22;46902;52.920;6.536;2023-07-16T09:50:05;21.60;81.10
61016;DHT22;46902;52.920;6.536;2023-07-16T09:52:31;21.60;80.40
61016;DHT22;46902;52.920;6.536;2023-07-16T09:55:01;21.60;80.90
61016;DHT22;46902;52.920;6.536;2023-07-16T09:57:28;21.60;80.60
61016;DHT22;46902;52.920;6.536;2023-07-16T09:59:56;21.80;80.80
61016;DHT22;46902;52.920;6.536;2023-07-16T10:02:24;22.00;79.80
61016;DHT22;46902;52.920;6.536;2023-07-16T10:04:49;22.00;78.90
61016;DHT22;46902;52.920;6.536;2023-07-16T10:07:23;21.90;78.70
61016;DHT22;46902;52.920;6.536;2023-07-16T10:09:56;21.70;78.20
61016;DHT22;46902;52.920;6.536;2023-07-16T10:12:26;21.60;79.10
61016;DHT22;46902;52.920;6.536;2023-07-16T10:14:58;21.50;79.40
61016;DHT22;46902;52.920;6.536;2023-07-16T10:17:25;21.40;79.30
61016;DHT22;46902;52.920;6.536;2023-07-16T10:19:51;21.40;79.80
61016;DHT22;46902;52.920;6.536;2023-07-16T10:22:42;21.50;79.50
61016;DHT22;46902;52.920;6.536;2023-07-16T10:27:37;21.40;79.20
61016;DHT22;46902;52.920;6.536;2023-07-16T10:30:04;21.30;79.50
61016;DHT22;46902;52.920;6.536;2023-07-16T10:32:31;21.20;80.30
61016;DHT22;46902;52.920;6.536;2023-07-16T10:34:57;21.20;80.60
61016;DHT22;46902;52.920;6.536;2023-07-16T10:37:24;21.30;81.10
61016;DHT22;46902;52.920;6.536;2023-07-16T10:39:52;21.40;81.10
61016;DHT22;46902;52.920;6.536;2023-07-16T10:42:20;21.70;80.90
61016;DHT22;46902;52.920;6.536;2023-07-16T10:44:49;21.90;80.20
61016;DHT22;46902;52.920;6.536;2023-07-16T10:47:35;22.10;80.10
61016;DHT22;46902;52.920;6.536;2023-07-16T10:50:07;22.00;77.60
61016;DHT22;46902;52.920;6.536;2023-07-16T10:52:35;21.90;78.30
61016;DHT22;46902;52.920;6.536;2023-07-16T10:55:00;22.00;78.70
61016;DHT22;46902;52.920;6.536;2023-07-16T10:57:27;22.20;78.10
61016;DHT22;46902;52.920;6.536;2023-07-16T10:59:57;22.20;77.30
61016;DHT22;46902;52.920;6.536;2023-07-16T11:02:25;22.30;77.10
61016;DHT22;46902;52.920;6.536;2023-07-16T11:04:51;22.30;77.10
61016;DHT22;46902;52.920;6.536;2023-07-16T11:07:21;22.30;77.70
61016;DHT22;46902;52.920;6.536;2023-07-16T11:09:48;22.40;76.90
61016;DHT22;46902;52.920;6.536;2023-07-16T11:12:15;22.40;76.60
61016;DHT22;46902;52.920;6.536;2023-07-16T11:14:44;22.30;76.70
61016;DHT22;46902;52.920;6.536;2023-07-16T11:17:11;22.20;77.00
61016;DHT22;46902;52.920;6.536;2023-07-16T11:19:37;22.10;77.10
61016;DHT22;46902;52.920;6.536;2023-07-16T11:22:05;22.00;76.80
61016;DHT22;46902;52.920;6.536;2023-07-16T11:27:19;21.80;77.40
61016;DHT22;46902;52.920;6.536;2023-07-16T11:29:59;21.80;77.60
61016;DHT22;46902;52.920;6.536;2023-07-16T11:32:33;21.70;77.70
61016;DHT22;46902;52.920;6.536;2023-07-16T11:35:04;21.50;78.20
61016;DHT22;46902;52.920;6.536;2023-07-16T11:37:34;21.30;78.10
61016;DHT22;46902;52.920;6.536;2023-07-16T11:40:07;21.30;78.10
61016;DHT22;46902;52.920;6.536;2023-07-16T11:42:34;21.20;78.40
61016;DHT22;46902;52.920;6.536;2023-07-16T11:45:01;21.20;78.60
61016;DHT22;46902;52.920;6.536;2023-07-16T11:47:27;21.10;78.60
61016;DHT22;46902;52.920;6.536;2023-07-16T11:49:53;21.00;79.00
61016;DHT22;46902;52.920;6.536;2023-07-16T11:52:20;21.00;79.60
61016;DHT22;46902;52.920;6.536;2023-07-16T11:54:47;20.90;79.90
61016;DHT22;46902;52.920;6.536;2023-07-16T11:57:12;20.90;79.90
61016;DHT22;46902;52.920;6.536;2023-07-16T11:59:38;20.90;79.70
61016;DHT22;46902;52.920;6.536;2023-07-16T12:02:04;20.90;80.20
61016;DHT22;46902;52.920;6.536;2023-07-16T12:04:30;21.00;80.40
61016;DHT22;46902;52.920;6.536;2023-07-16T12:06:55;21.10;79.90
61016;DHT22;46902;52.920;6.536;2023-07-16T12:09:21;21.40;79.40
61016;DHT22;46902;52.920;6.536;2023-07-16T12:11:46;21.90;79.30
61016;DHT22;46902;52.920;6.536;2023-07-16T12:14:12;22.30;78.80
61016;DHT22;46902;52.920;6.536;2023-07-16T12:16:38;22.70;77.50
61016;DHT22;46902;52.920;6.536;2023-07-16T12:19:07;22.60;75.80
61016;DHT22;46902;52.920;6.536;2023-07-16T12:21:32;22.40;75.90
61016;DHT22;46902;52.920;6.536;2023-07-16T12:23:58;22.20;76.30
61016;DHT22;46902;52.920;6.536;2023-07-16T12:26:24;22.00;76.70
61016;DHT22;46902;52.920;6.536;2023-07-16T12:28:49;22.00;77.10
61016;DHT22;46902;52.920;6.536;2023-07-16T12:31:15;22.10;77.80
61016;DHT22;46902;52.920;6.536;2023-07-16T12:33:42;22.30;77.90
61016;DHT22;46902;52.920;6.536;2023-07-16T12:36:08;22.30;77.70
61016;DHT22;46902;52.920;6.536;2023-07-16T12:38:33;22.30;78.00
61016;DHT22;46902;52.920;6.536;2023-07-16T12:40:59;22.20;77.90
61016;DHT22;46902;52.920;6.536;2023-07-16T12:43:24;21.90;78.10
61016;DHT22;46902;52.920;6.536;2023-07-16T12:45:50;21.80;79.50
61016;DHT22;46902;52.920;6.536;2023-07-16T12:48:16;21.70;80.50
61016;DHT22;46902;52.920;6.536;2023-07-16T12:50:41;21.70;80.70
61016;DHT22;46902;52.920;6.536;2023-07-16T12:53:08;21.60;81.40
61016;DHT22;46902;52.920;6.536;2023-07-16T12:55:33;21.60;81.00
61016;DHT22;46902;52.920;6.536;2023-07-16T12:57:59;21.50;81.00
61016;DHT22;46902;52.920;6.536;2023-07-16T13:00:25;21.50;81.00
61016;DHT22;46902;52.920;6.536;2023-07-16T13:02:51;21.30;80.90
61016;DHT22;46902;52.920;6.536;2023-07-16T13:05:16;21.30;81.60
61016;DHT22;46902;52.920;6.536;2023-07-16T13:07:42;21.30;81.90
61016;DHT22;46902;52.920;6.536;2023-07-16T13:10:08;21.30;82.70
61016;DHT22;46902;52.920;6.536;2023-07-16T13:12:34;21.40;82.50
61016;DHT22;46902;52.920;6.536;2023-07-16T13:15:00;21.40;82.70
61016;DHT22;46902;52.920;6.536;2023-07-16T13:17:25;21.50;82.10
61016;DHT22;46902;52.920;6.536;2023-07-16T13:19:51;21.40;81.60
61016;DHT22;46902;52.920;6.536;2023-07-16T13:22:16;21.40;80.00
61016;DHT22;46902;52.920;6.536;2023-07-16T13:24:42;21.40;80.10
61016;DHT22;46902;52.920;6.536;2023-07-16T13:27:18;21.40;79.00
61016;DHT22;46902;52.920;6.536;2023-07-16T13:29:44;21.50;79.50
61016;DHT22;46902;52.920;6.536;2023-07-16T13:32:10;21.60;79.40
61016;DHT22;46902;52.920;6.536;2023-07-16T13:34:35;21.60;78.50
61016;DHT22;46902;52.920;6.536;2023-07-16T13:37:01;21.70;79.20
61016;DHT22;46902;52.920;6.536;2023-07-16T13:39:27;21.70;79.30
61016;DHT22;46902;52.920;6.536;2023-07-16T13:41:52;21.90;79.20
61016;DHT22;46902;52.920;6.536;2023-07-16T13:44:18;22.10;79.20
61016;DHT22;46902;52.920;6.536;2023-07-16T13:46:43;22.30;78.50
61016;DHT22;46902;52.920;6.536;2023-07-16T13:49:09;22.60;78.20
61016;DHT22;46902;52.920;6.536;2023-07-16T13:51:34;22.70;77.30
61016;DHT22;46902;52.920;6.536;2023-07-16T13:54:00;22.90;77.50
61016;DHT22;46902;52.920;6.536;2023-07-16T13:56:26;23.00;77.50
61016;DHT22;46902;52.920;6.536;2023-07-16T13:58:51;23.10;76.30
61016;DHT22;46902;52.920;6.536;2023-07-16T14:01:19;23.30;75.80
61016;DHT22;46902;52.920;6.536;2023-07-16T14:03:45;23.60;74.70
61016;DHT22;46902;52.920;6.536;2023-07-16T14:06:10;23.70;73.90
61016;DHT22;46902;52.920;6.536;2023-07-16T14:08:36;23.70;73.70
61016;DHT22;46902;52.920;6.536;2023-07-16T14:11:02;23.50;72.50
61016;DHT22;46902;52.920;6.536;2023-07-16T14:13:28;23.30;72.40
61016;DHT22;46902;52.920;6.536;2023-07-16T14:15:54;23.10;72.70
61016;DHT22;46902;52.920;6.536;2023-07-16T14:18:19;23.00;73.30
61016;DHT22;46902;52.920;6.536;2023-07-16T14:20:45;23.10;73.40
61016;DHT22;46902;52.920;6.536;2023-07-16T14:23:11;23.00;73.40
61016;DHT22;46902;52.920;6.536;2023-07-16T14:25:36;22.80;73.40
61016;DHT22;46902;52.920;6.536;2023-07-16T14:28:02;22.80;73.50
61016;DHT22;46902;52.920;6.536;2023-07-16T14:30:28;22.80;73.60
61016;DHT22;46902;52.920;6.536;2023-07-16T14:32:55;22.90;74.00
61016;DHT22;46902;52.920;6.536;2023-07-16T14:35:20;22.90;73.70
61016;DHT22;46902;52.920;6.536;2023-07-16T14:37:49;22.90;73.50
61016;DHT22;46902;52.920;6.536;2023-07-16T14:40:14;22.90;72.90
61016;DHT22;46902;52.920;6.536;2023-07-16T14:42:40;22.80;72.80
61016;DHT22;46902;52.920;6.536;2023-07-16T14:45:07;22.70;73.00
61016;DHT22;46902;52.920;6.536;2023-07-16T14:47:33;22.70;72.80
61016;DHT22;46902;52.920;6.536;2023-07-16T14:49:59;22.70;72.60
61016;DHT22;46902;52.920;6.536;2023-07-16T14:52:24;22.50;72.70
61016;DHT22;46902;52.920;6.536;2023-07-16T14:54:50;22.50;72.70
61016;DHT22;46902;52.920;6.536;2023-07-16T14:57:16;22.70;73.60
61016;DHT22;46902;52.920;6.536;2023-07-16T14:59:42;22.80;73.40
61016;DHT22;46902;52.920;6.536;2023-07-16T15:02:09;23.00;73.10
61016;DHT22;46902;52.920;6.536;2023-07-16T15:04:34;23.10;72.30
61016;DHT22;46902;52.920;6.536;2023-07-16T15:07:00;23.00;72.00
61016;DHT22;46902;52.920;6.536;2023-07-16T15:09:26;23.00;72.20
61016;DHT22;46902;52.920;6.536;2023-07-16T15:11:51;23.00;72.10
61016;DHT22;46902;52.920;6.536;2023-07-16T15:14:17;22.90;71.90
61016;DHT22;46902;52.920;6.536;2023-07-16T15:16:42;22.90;71.50
61016;DHT22;46902;52.920;6.536;2023-07-16T15:19:08;22.90;71.20
61016;DHT22;46902;52.920;6.536;2023-07-16T15:21:35;22.80;71.60
61016;DHT22;46902;52.920;6.536;2023-07-16T15:24:04;22.60;71.80
61016;DHT22;46902;52.920;6.536;2023-07-16T15:26:29;22.50;72.00
61016;DHT22;46902;52.920;6.536;2023-07-16T15:28:55;22.40;71.90
61016;DHT22;46902;52.920;6.536;2023-07-16T15:31:21;22.30;72.10
61016;DHT22;46902;52.920;6.536;2023-07-16T15:33:53;22.30;72.70
61016;DHT22;46902;52.920;6.536;2023-07-16T15:36:18;22.20;72.60